createdAt,value
2023-05-06T00:00:05.753Z,12.35
2023-05-06T00:02:32.920Z,11.32
2023-05-06T00:05:00.027Z,13.60
2023-05-06T00:07:26.915Z,15.07
2023-05-06T00:09:53.762Z,13.77
2023-05-06T00:12:20.622Z,12.35
2023-05-06T00:14:47.493Z,13.27
2023-05-06T00:17:14.415Z,13.75
2023-05-06T00:19:41.293Z,14.98
2023-05-06T00:22:08.284Z,12.85
2023-05-06T00:24:35.216Z,16.12
2023-05-06T00:27:02.008Z,14.10
2023-05-06T00:29:29.591Z,15.30
2023-05-06T00:31:56.436Z,14.75
2023-05-06T00:34:23.316Z,15.57
2023-05-06T00:36:50.148Z,13.90
2023-05-06T00:39:17.013Z,13.70
2023-05-06T00:41:43.850Z,15.25
2023-05-06T00:44:10.682Z,19.23
2023-05-06T00:46:37.789Z,14.25
2023-05-06T00:49:04.682Z,14.40
2023-05-06T00:51:32.336Z,13.05
2023-05-06T00:53:59.305Z,14.13
2023-05-06T00:56:26.178Z,16.58
2023-05-06T00:58:54.016Z,15.35
2023-05-06T01:01:23.032Z,15.75
2023-05-06T01:03:50.076Z,13.13
2023-05-06T01:06:36.163Z,15.32
2023-05-06T01:09:21.414Z,11.80
2023-05-06T01:12:00.113Z,12.65
2023-05-06T01:14:54.454Z,12.37
2023-05-06T01:17:25.114Z,12.93
2023-05-06T01:19:55.586Z,13.60
2023-05-06T01:22:23.792Z,13.10
2023-05-06T01:24:50.748Z,14.10
2023-05-06T01:27:18.419Z,12.35
2023-05-06T01:29:46.727Z,13.02
2023-05-06T01:32:19.528Z,12.63
2023-05-06T01:35:22.030Z,13.68
2023-05-06T01:38:35.150Z,15.25
2023-05-06T01:41:02.279Z,12.15
2023-05-06T01:43:32.697Z,12.23
2023-05-06T01:46:00.793Z,11.55
2023-05-06T01:48:30.754Z,14.25
2023-05-06T01:50:57.752Z,11.15
2023-05-06T01:53:24.580Z,17.37
2023-05-06T01:55:51.451Z,14.85
2023-05-06T01:58:18.289Z,13.05
2023-05-06T02:00:45.153Z,12.48
2023-05-06T02:03:12.633Z,14.85
2023-05-06T02:05:39.567Z,14.02
2023-05-06T02:08:06.486Z,12.07
2023-05-06T02:10:33.366Z,11.65
2023-05-06T02:13:00.289Z,15.18
2023-05-06T02:15:27.334Z,12.43
2023-05-06T02:17:54.263Z,15.35
2023-05-06T02:20:21.133Z,11.73
2023-05-06T02:22:48.005Z,13.23
2023-05-06T02:25:15.001Z,16.62
2023-05-06T02:27:41.898Z,18.05
2023-05-06T02:30:09.046Z,16.58
2023-05-06T02:32:36.303Z,16.37
2023-05-06T02:35:03.489Z,16.48
2023-05-06T02:37:30.329Z,16.80
2023-05-06T02:39:57.240Z,19.48
2023-05-06T02:42:24.140Z,18.42
2023-05-06T02:44:51.019Z,19.70
2023-05-06T02:47:17.909Z,16.95
2023-05-06T02:49:44.716Z,19.33
2023-05-06T02:52:11.618Z,16.95
2023-05-06T02:54:38.449Z,16.50
2023-05-06T02:57:05.318Z,16.27
2023-05-06T02:59:32.175Z,14.57
2023-05-06T03:01:59.045Z,14.70
2023-05-06T03:04:26.013Z,18.33
2023-05-06T03:06:52.845Z,14.60
2023-05-06T03:09:19.766Z,16.42
2023-05-06T03:11:46.616Z,16.98
2023-05-06T03:14:13.431Z,15.35
2023-05-06T03:16:40.338Z,15.50
2023-05-06T03:19:07.223Z,15.43
2023-05-06T03:21:34.110Z,15.73
2023-05-06T03:24:01.177Z,14.75
2023-05-06T03:26:28.036Z,14.77
2023-05-06T03:28:54.934Z,14.00
2023-05-06T03:31:21.792Z,13.68
2023-05-06T03:33:48.668Z,15.27
2023-05-06T03:36:15.499Z,11.52
2023-05-06T03:38:42.384Z,16.48
2023-05-06T03:41:09.323Z,14.13
2023-05-06T03:43:36.343Z,14.35
2023-05-06T03:46:03.893Z,15.25
2023-05-06T03:48:31.448Z,13.05
2023-05-06T03:50:58.332Z,14.73
2023-05-06T03:53:25.987Z,14.57
2023-05-06T03:55:52.852Z,14.63
2023-05-06T03:58:19.719Z,14.20
2023-05-06T04:00:46.564Z,16.35
2023-05-06T04:03:13.561Z,15.45
2023-05-06T04:05:40.467Z,13.75
2023-05-06T04:08:07.636Z,13.07
2023-05-06T04:10:39.399Z,15.57
2023-05-06T04:13:06.467Z,15.90
2023-05-06T04:15:34.700Z,17.90
2023-05-06T04:18:01.794Z,18.08
2023-05-06T04:20:28.701Z,18.10
2023-05-06T04:22:55.562Z,16.80
2023-05-06T04:25:22.436Z,16.17
2023-05-06T04:27:49.268Z,17.60
2023-05-06T04:30:16.215Z,19.30
2023-05-06T04:32:43.579Z,17.87
2023-05-06T04:35:10.815Z,17.85
2023-05-06T04:37:37.840Z,15.52
2023-05-06T04:40:05.887Z,11.00
2023-05-06T04:42:33.732Z,11.32
2023-05-06T04:45:00.927Z,11.40
2023-05-06T04:47:27.925Z,11.00
2023-05-06T04:49:54.878Z,15.00
2023-05-06T04:52:21.707Z,13.80
2023-05-06T04:54:48.546Z,11.00
2023-05-06T04:57:15.421Z,10.63
2023-05-06T04:59:42.783Z,10.15
2023-05-06T05:02:09.649Z,9.70
2023-05-06T05:04:36.733Z,10.52
2023-05-06T05:07:03.575Z,10.65
2023-05-06T05:09:30.475Z,11.88
2023-05-06T05:11:57.306Z,13.57
2023-05-06T05:14:24.200Z,10.57
2023-05-06T05:16:51.073Z,11.20
2023-05-06T05:19:17.904Z,11.98
2023-05-06T05:21:44.726Z,12.57
2023-05-06T05:24:11.615Z,11.55
2023-05-06T05:26:38.479Z,10.48
2023-05-06T05:29:05.386Z,12.18
2023-05-06T05:31:32.486Z,11.35
2023-05-06T05:33:59.402Z,11.18
2023-05-06T05:36:26.431Z,12.13
2023-05-06T05:38:53.287Z,13.20
2023-05-06T05:41:20.212Z,12.48
2023-05-06T05:43:47.098Z,13.20
2023-05-06T05:46:14.492Z,13.20
2023-05-06T05:48:41.478Z,16.05
2023-05-06T05:51:08.355Z,18.08
2023-05-06T05:53:35.220Z,17.67
2023-05-06T05:56:02.062Z,16.52
2023-05-06T05:58:28.996Z,20.05
2023-05-06T06:00:55.933Z,16.90
2023-05-06T06:03:22.849Z,15.43
2023-05-06T06:05:49.883Z,15.60
2023-05-06T06:08:19.610Z,18.08
2023-05-06T06:10:47.449Z,16.17
2023-05-06T06:13:14.402Z,16.17
2023-05-06T06:15:41.593Z,15.90
2023-05-06T06:18:09.021Z,15.48
2023-05-06T06:20:37.914Z,16.50
2023-05-06T06:23:04.784Z,13.75
2023-05-06T06:25:31.733Z,14.05
2023-05-06T06:27:58.567Z,14.63
2023-05-06T06:30:25.630Z,14.32
2023-05-06T06:32:53.757Z,13.82
2023-05-06T06:35:20.743Z,14.07
2023-05-06T06:37:47.654Z,15.57
2023-05-06T06:40:14.704Z,15.52
2023-05-06T06:42:41.641Z,14.95
2023-05-06T06:45:09.912Z,16.17
2023-05-06T06:47:37.079Z,16.40
2023-05-06T06:50:04.213Z,14.95
2023-05-06T06:52:31.125Z,13.65
2023-05-06T06:54:58.044Z,12.32
2023-05-06T06:57:25.043Z,14.15
2023-05-06T06:59:53.782Z,13.65
2023-05-06T07:02:23.749Z,13.65
2023-05-06T07:04:50.627Z,13.20
2023-05-06T07:07:17.463Z,12.82
2023-05-06T07:09:44.589Z,12.80
2023-05-06T07:12:11.571Z,11.85
2023-05-06T07:14:38.541Z,16.00
2023-05-06T07:17:05.533Z,12.43
2023-05-06T07:19:32.484Z,10.43
2023-05-06T07:21:59.498Z,13.32
2023-05-06T07:24:26.293Z,11.40
2023-05-06T07:26:53.157Z,12.30
2023-05-06T07:29:20.004Z,12.00
2023-05-06T07:31:46.903Z,11.48
2023-05-06T07:34:13.821Z,10.98
2023-05-06T07:36:40.957Z,12.15
2023-05-06T07:39:07.977Z,10.98
2023-05-06T07:41:35.064Z,13.13
2023-05-06T07:44:02.207Z,11.85
2023-05-06T07:46:29.247Z,9.57
2023-05-06T07:48:56.159Z,10.00
2023-05-06T07:51:23.034Z,10.23
2023-05-06T07:53:49.890Z,9.20
2023-05-06T07:56:18.413Z,8.90
2023-05-06T07:58:45.289Z,8.18
2023-05-06T08:01:12.155Z,8.23
2023-05-06T08:03:39.214Z,8.95
2023-05-06T08:06:07.003Z,8.48
2023-05-06T08:08:33.911Z,8.50
2023-05-06T08:11:01.261Z,10.32
2023-05-06T08:13:28.384Z,10.75
2023-05-06T08:15:55.962Z,13.75
2023-05-06T08:18:23.431Z,8.50
2023-05-06T08:20:51.374Z,8.88
2023-05-06T08:23:18.240Z,9.23
2023-05-06T08:25:45.095Z,7.50
2023-05-06T08:28:11.999Z,7.85
2023-05-06T08:30:38.892Z,7.47
2023-05-06T08:33:06.060Z,9.00
2023-05-06T08:35:32.938Z,7.72
2023-05-06T08:37:59.758Z,10.55
2023-05-06T08:40:28.104Z,9.70
2023-05-06T08:42:56.162Z,8.48
2023-05-06T08:45:23.757Z,11.10
2023-05-06T08:47:50.782Z,8.88
2023-05-06T08:50:17.748Z,7.15
2023-05-06T08:52:45.406Z,7.37
2023-05-06T08:55:12.610Z,8.27
2023-05-06T08:57:40.528Z,8.23
2023-05-06T09:00:11.184Z,9.25
2023-05-06T09:02:41.982Z,6.47
2023-05-06T09:05:10.529Z,7.75
2023-05-06T09:07:37.930Z,8.25
2023-05-06T09:10:13.056Z,8.35
2023-05-06T09:12:39.999Z,6.15
2023-05-06T09:15:07.556Z,8.13
2023-05-06T09:17:34.579Z,7.68
2023-05-06T09:20:01.494Z,6.50
2023-05-06T09:22:29.876Z,9.77
2023-05-06T09:24:57.775Z,6.55
2023-05-06T09:27:26.883Z,7.18
2023-05-06T09:30:10.097Z,8.52
2023-05-06T09:32:39.834Z,7.62
2023-05-06T09:35:08.650Z,7.80
2023-05-06T09:37:36.096Z,6.15
2023-05-06T09:40:03.039Z,9.90
2023-05-06T09:42:30.544Z,7.18
2023-05-06T09:45:01.378Z,8.05
2023-05-06T09:47:33.282Z,7.72
2023-05-06T09:50:01.803Z,6.37
2023-05-06T09:52:29.665Z,9.20
2023-05-06T09:54:57.522Z,8.57
2023-05-06T09:57:24.580Z,7.53
2023-05-06T09:59:54.968Z,11.02
2023-05-06T10:02:23.689Z,8.15
2023-05-06T10:04:51.519Z,8.20
2023-05-06T10:07:22.957Z,7.25
2023-05-06T10:09:51.562Z,7.40
2023-05-06T10:12:19.363Z,6.97
2023-05-06T10:14:46.482Z,9.50
2023-05-06T10:17:14.010Z,6.78
2023-05-06T10:19:44.490Z,8.70
2023-05-06T10:22:18.069Z,7.28
2023-05-06T10:25:05.954Z,9.38
2023-05-06T10:27:36.052Z,7.05
2023-05-06T10:30:02.982Z,7.07
2023-05-06T10:32:32.646Z,8.10
2023-05-06T10:35:06.417Z,8.10
2023-05-06T10:37:34.280Z,9.63
2023-05-06T10:40:01.210Z,6.75
2023-05-06T10:42:30.729Z,8.10
2023-05-06T10:45:04.165Z,7.80
2023-05-06T10:47:50.020Z,7.97
2023-05-06T10:50:22.416Z,7.25
2023-05-06T10:52:52.579Z,8.75
2023-05-06T10:55:28.108Z,7.85
2023-05-06T10:58:03.911Z,7.43
2023-05-06T11:00:34.694Z,7.22
2023-05-06T11:03:03.875Z,7.47
2023-05-06T11:05:30.858Z,6.60
2023-05-06T11:08:11.115Z,7.20
2023-05-06T11:10:38.000Z,11.05
2023-05-06T11:13:27.897Z,8.50
2023-05-06T11:15:56.033Z,11.25
2023-05-06T11:18:27.034Z,11.30
2023-05-06T11:21:03.305Z,9.68
2023-05-06T11:23:42.771Z,10.60
2023-05-06T11:26:10.881Z,7.22
2023-05-06T11:28:38.755Z,9.23
2023-05-06T11:31:05.870Z,12.40
2023-05-06T11:33:34.137Z,9.90
2023-05-06T11:36:01.671Z,13.90
2023-05-06T11:38:43.215Z,10.95
2023-05-06T11:41:10.061Z,10.65
2023-05-06T11:43:36.991Z,9.77
2023-05-06T11:46:04.041Z,10.23
2023-05-06T11:48:30.964Z,8.90
2023-05-06T11:50:57.998Z,9.88
2023-05-06T11:53:24.957Z,8.88
2023-05-06T11:55:54.910Z,9.43
2023-05-06T11:58:25.664Z,8.68
2023-05-06T12:00:57.335Z,10.73
2023-05-06T12:03:25.233Z,8.45
2023-05-06T12:05:52.386Z,10.27
2023-05-06T12:08:27.818Z,9.02
2023-05-06T12:10:59.775Z,12.30
2023-05-06T12:13:27.477Z,9.60
2023-05-06T12:15:55.404Z,7.75
2023-05-06T12:18:22.931Z,9.45
2023-05-06T12:20:49.772Z,8.23
2023-05-06T12:23:16.898Z,8.80
2023-05-06T12:25:49.187Z,8.88
2023-05-06T12:28:20.410Z,8.98
2023-05-06T12:30:47.721Z,9.75
2023-05-06T12:33:14.588Z,13.02
2023-05-06T12:35:41.603Z,8.98
2023-05-06T12:38:13.386Z,10.88
2023-05-06T12:40:41.266Z,8.50
2023-05-06T12:43:09.125Z,10.20
2023-05-06T12:45:36.650Z,9.38
2023-05-06T12:48:04.133Z,10.30
2023-05-06T12:50:39.025Z,9.00
2023-05-06T12:53:07.462Z,10.63
2023-05-06T12:55:35.534Z,8.68
2023-05-06T12:58:02.784Z,7.62
2023-05-06T13:00:30.552Z,9.10
2023-05-06T13:02:57.493Z,10.07
2023-05-06T13:05:24.427Z,10.43
2023-05-06T13:07:51.531Z,8.95
2023-05-06T13:10:18.427Z,9.50
2023-05-06T13:12:45.290Z,11.02
2023-05-06T13:15:12.164Z,9.70
2023-05-06T13:17:39.125Z,9.60
2023-05-06T13:20:07.463Z,7.95
2023-05-06T13:22:47.001Z,8.40
2023-05-06T13:25:20.519Z,8.35
2023-05-06T13:27:47.460Z,12.48
2023-05-06T13:30:14.483Z,8.20
2023-05-06T13:32:41.395Z,9.15
2023-05-06T13:35:09.148Z,9.07
2023-05-06T13:37:36.202Z,7.45
2023-05-06T13:40:03.573Z,7.75
2023-05-06T13:42:30.607Z,7.93
2023-05-06T13:44:57.487Z,8.57
2023-05-06T13:47:24.429Z,9.90
2023-05-06T13:49:51.334Z,9.07
2023-05-06T13:52:18.170Z,7.68
2023-05-06T13:54:45.258Z,9.48
2023-05-06T13:57:12.075Z,8.50
2023-05-06T13:59:38.935Z,8.50
2023-05-06T14:02:09.225Z,7.70
2023-05-06T14:04:36.756Z,10.48
2023-05-06T14:07:03.677Z,8.23
2023-05-06T14:09:31.217Z,9.55
2023-05-06T14:11:58.111Z,10.68
2023-05-06T14:14:24.926Z,10.20
2023-05-06T14:16:54.633Z,9.40
2023-05-06T14:19:21.486Z,9.57
2023-05-06T14:21:48.341Z,8.82
2023-05-06T14:24:15.216Z,8.50
2023-05-06T14:26:42.819Z,9.65
2023-05-06T14:29:09.708Z,8.57
2023-05-06T14:31:36.641Z,8.98
2023-05-06T14:34:03.558Z,9.15
2023-05-06T14:36:30.432Z,8.25
2023-05-06T14:38:57.329Z,8.50
2023-05-06T14:41:24.187Z,10.38
2023-05-06T14:43:51.009Z,9.95
2023-05-06T14:46:18.001Z,8.73
2023-05-06T14:48:45.599Z,9.43
2023-05-06T14:51:12.487Z,10.02
2023-05-06T14:53:39.396Z,12.50
2023-05-06T14:56:09.643Z,8.48
2023-05-06T14:58:36.571Z,11.32
2023-05-06T15:01:03.471Z,9.30
2023-05-06T15:03:30.597Z,9.70
2023-05-06T15:05:57.462Z,9.95
2023-05-06T15:08:24.357Z,10.18
2023-05-06T15:10:51.214Z,9.65
2023-05-06T15:13:18.152Z,10.50
2023-05-06T15:15:45.068Z,9.35
2023-05-06T15:18:13.395Z,12.05
2023-05-06T15:20:40.984Z,10.93
2023-05-06T15:23:07.859Z,10.35
2023-05-06T15:25:36.245Z,10.40
2023-05-06T15:28:05.159Z,9.30
2023-05-06T15:30:32.085Z,10.68
2023-05-06T15:32:59.082Z,10.00
2023-05-06T15:35:25.992Z,10.05
2023-05-06T15:37:58.875Z,9.20
2023-05-06T15:40:26.509Z,9.05
2023-05-06T15:42:53.379Z,9.93
2023-05-06T15:45:21.442Z,9.40
2023-05-06T15:47:48.529Z,8.23
2023-05-06T15:50:28.913Z,8.82
2023-05-06T15:52:59.187Z,9.23
2023-05-06T15:55:26.695Z,9.30
2023-05-06T15:57:54.978Z,15.18
2023-05-06T16:00:22.165Z,9.40
2023-05-06T16:02:49.268Z,10.07
2023-05-06T16:05:16.527Z,15.90
2023-05-06T16:07:43.714Z,8.88
2023-05-06T16:10:10.872Z,11.10
2023-05-06T16:12:38.046Z,11.98
2023-05-06T16:15:05.260Z,10.55
2023-05-06T16:17:33.142Z,9.25
2023-05-06T16:20:00.213Z,9.23
2023-05-06T16:22:27.058Z,9.63
2023-05-06T16:24:53.897Z,9.57
2023-05-06T16:27:21.309Z,10.15
2023-05-06T16:29:48.275Z,10.82
2023-05-06T16:32:15.134Z,10.27
2023-05-06T16:34:41.993Z,9.20
2023-05-06T16:37:08.924Z,13.85
2023-05-06T16:39:36.001Z,8.68
2023-05-06T16:42:03.199Z,11.35
2023-05-06T16:44:30.025Z,10.80
2023-05-06T16:46:56.941Z,10.48
2023-05-06T16:49:27.842Z,10.63
2023-05-06T16:51:54.980Z,12.93
2023-05-06T16:54:21.836Z,13.15
2023-05-06T16:56:52.578Z,13.13
2023-05-06T16:59:21.986Z,11.43
2023-05-06T17:01:49.388Z,11.35
2023-05-06T17:04:16.745Z,10.85
2023-05-06T17:06:43.606Z,13.68
2023-05-06T17:09:11.162Z,10.80
2023-05-06T17:11:38.088Z,11.50
2023-05-06T17:14:05.057Z,12.25
2023-05-06T17:16:31.971Z,13.48
2023-05-06T17:18:58.888Z,13.80
2023-05-06T17:21:27.973Z,12.77
2023-05-06T17:23:54.823Z,13.90
2023-05-06T17:26:21.994Z,15.13
2023-05-06T17:28:49.107Z,12.37
2023-05-06T17:31:16.242Z,13.50
2023-05-06T17:33:44.367Z,16.35
2023-05-06T17:36:12.613Z,14.73
2023-05-06T17:38:39.845Z,13.07
2023-05-06T17:41:06.770Z,11.75
2023-05-06T17:43:34.281Z,12.57
2023-05-06T17:46:01.477Z,12.43
2023-05-06T17:48:28.583Z,11.98
2023-05-06T17:51:00.804Z,11.85
2023-05-06T17:53:27.916Z,11.52
2023-05-06T17:55:54.750Z,13.90
2023-05-06T17:58:21.747Z,12.05
2023-05-06T18:00:48.624Z,12.57
2023-05-06T18:03:15.675Z,15.10
2023-05-06T18:05:42.616Z,14.57
2023-05-06T18:08:09.722Z,11.18
2023-05-06T18:10:36.549Z,12.68
2023-05-06T18:13:03.933Z,13.60
2023-05-06T18:15:30.891Z,16.02
2023-05-06T18:17:57.760Z,11.05
2023-05-06T18:20:24.672Z,12.30
2023-05-06T18:22:51.580Z,14.18
2023-05-06T18:25:18.453Z,14.23
2023-05-06T18:27:45.412Z,11.93
2023-05-06T18:30:12.552Z,12.52
2023-05-06T18:32:39.459Z,14.80
2023-05-06T18:35:06.749Z,11.75
2023-05-06T18:37:33.693Z,11.35
2023-05-06T18:40:00.553Z,12.10
2023-05-06T18:42:27.831Z,14.40
2023-05-06T18:44:54.691Z,12.93
2023-05-06T18:47:21.617Z,12.95
2023-05-06T18:49:48.864Z,13.65
2023-05-06T18:52:17.841Z,12.68
2023-05-06T18:54:44.987Z,11.35
2023-05-06T18:57:12.349Z,14.07
2023-05-06T18:59:39.210Z,11.48
2023-05-06T19:02:06.074Z,12.57
2023-05-06T19:04:33.695Z,11.50
2023-05-06T19:07:01.302Z,11.18
2023-05-06T19:09:28.253Z,13.60
2023-05-06T19:11:55.938Z,11.80
2023-05-06T19:14:23.614Z,14.90
2023-05-06T19:16:52.259Z,15.10
2023-05-06T19:19:19.201Z,16.33
2023-05-06T19:21:46.211Z,15.85
2023-05-06T19:24:13.069Z,18.15
2023-05-06T19:26:40.248Z,18.05
2023-05-06T19:29:07.117Z,19.42
2023-05-06T19:31:35.013Z,20.37
2023-05-06T19:34:02.145Z,22.60
2023-05-06T19:36:28.976Z,19.87
2023-05-06T19:38:55.807Z,16.92
2023-05-06T19:41:22.666Z,17.95
2023-05-06T19:43:51.450Z,21.62
2023-05-06T19:46:18.708Z,20.17
2023-05-06T19:48:46.316Z,17.70
2023-05-06T19:51:13.644Z,19.30
2023-05-06T19:53:40.491Z,18.55
2023-05-06T19:56:13.225Z,17.98
2023-05-06T19:58:40.393Z,18.85
2023-05-06T20:01:07.354Z,17.40
2023-05-06T20:03:34.375Z,17.98
2023-05-06T20:06:01.454Z,19.52
2023-05-06T20:08:28.373Z,19.10
2023-05-06T20:10:55.248Z,18.33
2023-05-06T20:13:22.253Z,20.77
2023-05-06T20:15:49.204Z,18.50
2023-05-06T20:18:16.374Z,17.83
2023-05-06T20:20:43.506Z,18.98
2023-05-06T20:23:10.491Z,18.55
2023-05-06T20:25:37.496Z,17.77
2023-05-06T20:28:06.017Z,22.33
2023-05-06T20:30:33.431Z,17.55
2023-05-06T20:33:00.435Z,17.45
2023-05-06T20:35:27.531Z,17.12
2023-05-06T20:37:54.742Z,18.33
2023-05-06T20:40:22.054Z,16.50
2023-05-06T20:42:48.884Z,17.37
2023-05-06T20:45:15.725Z,17.45
2023-05-06T20:47:42.599Z,17.17
2023-05-06T20:50:16.462Z,17.75
2023-05-06T20:52:46.872Z,16.58
2023-05-06T20:55:16.636Z,19.85
2023-05-06T20:57:44.467Z,16.90
2023-05-06T21:00:11.866Z,18.70
2023-05-06T21:02:41.246Z,18.08
2023-05-06T21:05:09.322Z,20.55
2023-05-06T21:07:36.430Z,16.27
2023-05-06T21:10:05.861Z,16.05
2023-05-06T21:12:33.539Z,16.37
2023-05-06T21:15:00.630Z,17.02
2023-05-06T21:17:27.735Z,16.83
2023-05-06T21:19:54.698Z,13.48
2023-05-06T21:22:23.141Z,16.58
2023-05-06T21:24:50.812Z,16.58
2023-05-06T21:27:17.705Z,14.48
2023-05-06T21:29:44.645Z,15.38
2023-05-06T21:32:11.562Z,17.80
2023-05-06T21:34:38.415Z,16.10
2023-05-06T21:37:05.384Z,17.37
2023-05-06T21:39:32.267Z,17.75
2023-05-06T21:41:59.128Z,15.85
2023-05-06T21:44:26.155Z,17.83
2023-05-06T21:46:53.096Z,17.90
2023-05-06T21:49:22.018Z,16.05
2023-05-06T21:51:48.943Z,15.75
2023-05-06T21:54:17.277Z,16.52
2023-05-06T21:56:44.176Z,16.55
2023-05-06T21:59:11.031Z,15.70
2023-05-06T22:01:37.988Z,17.55
2023-05-06T22:04:11.372Z,16.42
2023-05-06T22:06:39.168Z,18.20
2023-05-06T22:09:09.807Z,16.80
2023-05-06T22:11:38.570Z,14.65
2023-05-06T22:14:06.902Z,17.60
2023-05-06T22:16:35.810Z,16.12
2023-05-06T22:19:04.125Z,13.55
2023-05-06T22:21:32.771Z,13.07
2023-05-06T22:23:59.784Z,15.93
2023-05-06T22:26:28.336Z,14.00
2023-05-06T22:28:57.936Z,16.58
2023-05-06T22:31:25.282Z,14.50
2023-05-06T22:33:55.668Z,14.15
2023-05-06T22:36:22.745Z,15.05
2023-05-06T22:38:50.013Z,14.07
2023-05-06T22:41:17.684Z,14.70
2023-05-06T22:43:44.543Z,14.63
2023-05-06T22:46:11.423Z,13.90
2023-05-06T22:48:38.448Z,13.57
2023-05-06T22:51:05.431Z,14.45
2023-05-06T22:53:32.662Z,14.10
2023-05-06T22:55:59.599Z,13.75
2023-05-06T22:58:26.492Z,15.32
2023-05-06T23:00:53.377Z,16.40
2023-05-06T23:03:22.807Z,14.98
2023-05-06T23:05:49.841Z,16.17
2023-05-06T23:08:16.754Z,16.40
2023-05-06T23:10:44.858Z,16.37
2023-05-06T23:13:12.269Z,15.50
2023-05-06T23:15:39.340Z,15.93
2023-05-06T23:18:06.931Z,14.73
2023-05-06T23:20:33.905Z,15.18
2023-05-06T23:23:00.738Z,16.83
2023-05-06T23:25:27.734Z,17.12
2023-05-06T23:27:54.606Z,15.43
2023-05-06T23:30:21.464Z,16.33
2023-05-06T23:32:48.379Z,15.02
2023-05-06T23:35:15.224Z,16.08
2023-05-06T23:37:42.100Z,18.08
2023-05-06T23:40:09.172Z,16.00
2023-05-06T23:42:36.239Z,16.90
2023-05-06T23:45:03.185Z,15.93
2023-05-06T23:47:30.061Z,16.50
2023-05-06T23:49:57.946Z,15.00
2023-05-06T23:52:24.966Z,14.40
2023-05-06T23:54:51.804Z,15.60
2023-05-06T23:57:18.677Z,16.55
2023-05-06T23:59:45.654Z,15.43
